Kent City, MI (49330)

2:53 PM EDT on August 04, 2015 (GMT -0400)
Sparta Township | | Change Station
CLOSE
Current Station
Personal Weather Station
Location: Sparta, MI
Elevation: 781 ft
Nearby Weather Stations

Elev 781 ft 43.17 °N, 85.75 °W | Updated 50 seconds ago

Mostly Cloudy
Mostly Cloudy
75.4 °F
Feels Like 78 °F
N
6.0
Wind Variable Wind from WSW
Gusts 12.0 mph

Today
High -- | Low -- °F
--% Chance of Precip.
Yesterday
High -- | Low -- °F
Precip. -- in
6:36 AM 9:01 PM
Waning Gibbous, 75% visible
Pressure 29.94 in
Visibility 10.0 miles
Clouds Scattered Clouds 4400 ft
Scattered Clouds 7000 ft
Heat Index 78 °F
Dew Point 60 °F
Humidity 60%
Rainfall 0.00 in
Snow Depth Not available.
UV 8 out of 12
Pollen 7.10 out of 12
Air Quality Not available.
Flu Activity Not available.
METAR KFFX 041833Z AUTO 26010KT 10SM SCT044 SCT070 25/11 A2994 RMK AO2 T02450112

More Conditions Fewer Conditions

Pressure 29.94 in
Visibility 10.0 miles
Clouds Scattered Clouds 4400 ft
Scattered Clouds 7000 ft
Heat Index 78 °F
Dew Point 60 °F
Humidity 60%
Rainfall 0.00 in
Snow Depth Not available.
UV 8 out of 12
Pollen 7.10 out of 12
Air Quality Not available.
Flu Activity Not available.
METAR KFFX 041833Z AUTO 26010KT 10SM SCT044 SCT070 25/11 A2994 RMK AO2 T02450112

More Conditions Fewer Conditions

10-Day Weather Forecast

×

Almanac

Astronomy

Aug. 04, 2015 Rise Set
Actual Time
Civil Twilight
Nautical Twilight
Astronomical Twilight
Moon
Length of Visible Light
Length of Day
Tomorrow will be .
, % of the Moon is Illuminated

Today's Extremes

State Highs State Lows

Community

WunderPhotos

Upload Photos

1,843,937 photos uploaded!

WunderBlogs® & News

Nearby

Air Quality

  Air Quality AQ Index Pollutant
Not available.

Snow Depth

Station Depth Elevation

Earthquake Activity

City Distance Mag. Time & Date
Minimum magnitude displayed is 2.5.

Coastal Water Temperatures

Place Temperature

Stations

Nearby Weather Stations

Station Location Temp. Windchill Dew Point Humidity Wind Precip. Elev Updated Type